createdAt,value
2018-06-16T00:00:20.371Z,99.90
2018-06-16T00:02:47.937Z,99.90
2018-06-16T00:05:15.509Z,99.90
2018-06-16T00:07:43.149Z,99.90
2018-06-16T00:10:10.752Z,99.90
2018-06-16T00:12:38.352Z,99.90
2018-06-16T00:15:06.018Z,99.90
2018-06-16T00:17:33.717Z,99.90
2018-06-16T00:20:01.265Z,99.90
2018-06-16T00:22:28.853Z,99.90
2018-06-16T00:24:58.495Z,99.90
2018-06-16T00:27:26.673Z,99.90
2018-06-16T00:29:54.267Z,99.90
2018-06-16T00:32:22.205Z,99.90
2018-06-16T00:34:50.081Z,99.90
2018-06-16T00:37:17.745Z,99.90
2018-06-16T00:39:45.509Z,99.90
2018-06-16T00:42:13.045Z,99.90
2018-06-16T00:44:40.729Z,99.90
2018-06-16T00:47:08.311Z,99.90
2018-06-16T00:49:35.903Z,99.90
2018-06-16T00:54:31.031Z,99.90
2018-06-16T00:57:09.968Z,99.90
2018-06-16T00:59:37.480Z,99.90
2018-06-16T01:02:05.093Z,99.90
2018-06-16T01:04:32.718Z,99.90
2018-06-16T01:07:00.273Z,99.90
2018-06-16T01:09:27.836Z,99.90
2018-06-16T01:11:55.406Z,99.90
2018-06-16T01:14:22.985Z,99.90
2018-06-16T01:16:50.553Z,99.90
2018-06-16T01:19:18.189Z,99.90
2018-06-16T01:21:46.001Z,99.90
2018-06-16T01:24:13.541Z,99.90
2018-06-16T01:26:41.433Z,99.90
2018-06-16T01:29:09.041Z,99.90
2018-06-16T01:31:36.953Z,99.90
2018-06-16T01:34:04.571Z,99.90
2018-06-16T01:36:32.131Z,99.90
2018-06-16T01:38:59.637Z,99.90
2018-06-16T01:41:27.229Z,99.90
2018-06-16T01:43:54.747Z,99.90
2018-06-16T01:48:50.114Z,99.90
2018-06-16T01:51:17.749Z,99.90
2018-06-16T01:53:45.358Z,99.90
2018-06-16T01:56:12.932Z,99.90
2018-06-16T01:58:40.482Z,99.90
2018-06-16T02:01:08.070Z,99.90
2018-06-16T02:03:35.672Z,99.90
2018-06-16T02:06:03.286Z,99.90
2018-06-16T02:08:30.826Z,99.90
2018-06-16T02:10:58.568Z,99.90
2018-06-16T02:13:26.146Z,99.90
2018-06-16T02:18:21.213Z,99.90
2018-06-16T02:20:48.764Z,99.90
2018-06-16T02:23:16.334Z,99.90
2018-06-16T02:25:43.908Z,99.90
2018-06-16T02:28:11.452Z,99.90
2018-06-16T02:30:39.034Z,99.90
2018-06-16T02:33:06.708Z,99.90
2018-06-16T02:35:34.518Z,99.90
2018-06-16T02:38:02.059Z,99.90
2018-06-16T02:40:29.634Z,99.90
2018-06-16T02:42:57.197Z,99.90
2018-06-16T02:45:24.756Z,99.90
2018-06-16T02:47:52.430Z,99.90
2018-06-16T02:50:19.995Z,99.90
2018-06-16T02:52:47.554Z,99.90
2018-06-16T02:55:15.162Z,99.90
2018-06-16T02:57:42.718Z,99.90
2018-06-16T03:00:10.317Z,99.90
2018-06-16T03:02:37.904Z,99.90
2018-06-16T03:05:05.474Z,99.90
2018-06-16T03:07:33.034Z,99.90
2018-06-16T03:10:00.602Z,99.90
2018-06-16T03:14:55.686Z,99.90
2018-06-16T03:17:23.318Z,99.90
2018-06-16T03:19:50.863Z,99.90
2018-06-16T03:22:18.392Z,99.90
2018-06-16T03:24:45.944Z,99.90
2018-06-16T03:27:13.504Z,99.90
2018-06-16T03:29:41.049Z,99.90
2018-06-16T03:32:09.460Z,99.90
2018-06-16T03:34:37.076Z,99.90
2018-06-16T03:37:04.818Z,99.90
2018-06-16T03:41:59.884Z,99.90
2018-06-16T03:44:27.466Z,99.90
2018-06-16T03:46:55.087Z,99.90
2018-06-16T03:49:22.671Z,99.90
2018-06-16T03:51:50.258Z,99.90
2018-06-16T03:54:17.890Z,99.90
2018-06-16T03:56:45.392Z,99.90
2018-06-16T03:59:12.932Z,99.90
2018-06-16T04:01:40.541Z,99.90
2018-06-16T04:04:08.080Z,99.90
2018-06-16T04:06:35.649Z,99.90
2018-06-16T04:09:04.885Z,99.90
2018-06-16T04:11:32.489Z,99.90
2018-06-16T04:14:00.038Z,99.90
2018-06-16T04:16:27.625Z,99.90
2018-06-16T04:18:55.145Z,99.90
2018-06-16T04:21:22.708Z,99.90
2018-06-16T04:23:50.303Z,99.90
2018-06-16T04:26:17.849Z,99.90
2018-06-16T04:28:45.401Z,99.90
2018-06-16T04:31:13.025Z,99.90
2018-06-16T04:33:40.588Z,99.90
2018-06-16T04:36:08.143Z,99.90
2018-06-16T04:38:35.715Z,99.90
2018-06-16T04:41:03.257Z,99.90
2018-06-16T04:43:30.805Z,99.90
2018-06-16T04:45:58.453Z,99.90
2018-06-16T04:48:26.025Z,99.90
2018-06-16T04:50:53.541Z,99.90
2018-06-16T04:53:21.107Z,99.90
2018-06-16T04:55:48.649Z,99.90
2018-06-16T04:58:16.224Z,99.90
2018-06-16T05:00:43.817Z,99.90
2018-06-16T05:03:11.457Z,99.90
2018-06-16T05:05:38.969Z,99.90
2018-06-16T05:08:06.613Z,99.90
2018-06-16T05:10:34.201Z,99.90
2018-06-16T05:13:01.762Z,99.90
2018-06-16T05:15:29.319Z,99.90
2018-06-16T05:17:56.839Z,99.90
2018-06-16T05:20:24.401Z,99.90
2018-06-16T05:22:52.009Z,99.90
2018-06-16T05:25:19.577Z,99.90
2018-06-16T05:27:47.136Z,99.90
2018-06-16T05:30:14.789Z,99.90
2018-06-16T05:32:42.326Z,99.90
2018-06-16T05:35:09.896Z,99.90
2018-06-16T05:37:37.530Z,99.90
2018-06-16T05:40:05.071Z,99.90
2018-06-16T05:42:32.621Z,99.90
2018-06-16T05:45:00.208Z,99.90
2018-06-16T05:47:27.775Z,99.90
2018-06-16T05:49:55.350Z,99.90
2018-06-16T05:52:23.004Z,99.90
2018-06-16T05:54:50.569Z,99.90
2018-06-16T05:57:18.187Z,99.90
2018-06-16T05:59:45.771Z,99.90
2018-06-16T06:02:13.320Z,99.90
2018-06-16T06:04:40.848Z,99.90
2018-06-16T06:07:08.475Z,99.90
2018-06-16T06:09:36.030Z,99.90
2018-06-16T06:12:03.631Z,99.90
2018-06-16T06:14:31.231Z,99.90
2018-06-16T06:16:58.809Z,99.90
2018-06-16T06:19:26.337Z,99.90
2018-06-16T06:21:53.897Z,99.90
2018-06-16T06:26:48.909Z,99.90
2018-06-16T06:29:16.528Z,99.90
2018-06-16T06:31:44.069Z,99.90
2018-06-16T06:34:11.657Z,99.90
2018-06-16T06:36:39.217Z,99.90
2018-06-16T06:39:07.621Z,99.90
2018-06-16T06:41:35.173Z,99.90
2018-06-16T06:44:02.803Z,99.90
2018-06-16T06:46:30.339Z,99.90
2018-06-16T06:48:57.939Z,99.90
2018-06-16T06:51:25.562Z,99.90
2018-06-16T06:53:53.097Z,99.90
2018-06-16T06:56:20.637Z,99.90
2018-06-16T06:58:48.195Z,99.90
2018-06-16T07:01:15.837Z,99.90
2018-06-16T07:03:43.381Z,99.90
2018-06-16T07:06:10.955Z,99.90
2018-06-16T07:08:38.689Z,99.90
2018-06-16T07:11:06.206Z,99.90
2018-06-16T07:16:01.395Z,99.90
2018-06-16T07:18:28.946Z,99.90
2018-06-16T07:20:56.500Z,99.90
2018-06-16T07:23:24.047Z,99.90
2018-06-16T07:25:51.598Z,99.90
2018-06-16T07:28:19.214Z,99.90
2018-06-16T07:30:46.787Z,99.90
2018-06-16T07:33:14.345Z,99.90
2018-06-16T07:35:41.950Z,99.90
2018-06-16T07:38:09.532Z,99.90
2018-06-16T07:40:37.134Z,99.90
2018-06-16T07:43:04.718Z,99.90
2018-06-16T07:45:32.264Z,99.90
2018-06-16T07:47:59.890Z,99.90
2018-06-16T07:50:27.514Z,99.90
2018-06-16T07:52:55.066Z,99.90
2018-06-16T07:55:22.652Z,99.90
2018-06-16T07:57:50.244Z,98.00
2018-06-16T08:00:17.790Z,96.50
2018-06-16T08:02:45.403Z,93.60
2018-06-16T08:05:12.960Z,89.50
2018-06-16T08:07:40.496Z,87.60
2018-06-16T08:10:08.114Z,86.20
2018-06-16T08:12:35.678Z,84.40
2018-06-16T08:15:03.309Z,81.20
2018-06-16T08:17:30.936Z,75.90
2018-06-16T08:19:58.530Z,71.00
2018-06-16T08:22:26.071Z,64.60
2018-06-16T08:24:54.144Z,61.20
2018-06-16T08:27:21.742Z,62.00
2018-06-16T08:29:49.294Z,61.30
2018-06-16T08:32:17.006Z,61.80
2018-06-16T08:34:44.662Z,61.90
2018-06-16T08:37:12.184Z,60.20
2018-06-16T08:39:39.748Z,59.60
2018-06-16T08:42:07.539Z,58.80
2018-06-16T08:44:35.129Z,57.50
2018-06-16T08:47:02.697Z,55.00
2018-06-16T08:49:30.361Z,53.80
2018-06-16T08:51:57.920Z,52.80
2018-06-16T08:54:25.566Z,50.50
2018-06-16T08:56:53.142Z,48.80
2018-06-16T08:59:20.664Z,49.10
2018-06-16T09:01:48.234Z,48.80
2018-06-16T09:04:15.880Z,50.80
2018-06-16T09:06:43.482Z,51.70
2018-06-16T09:09:11.047Z,52.30
2018-06-16T09:11:38.811Z,52.60
2018-06-16T09:14:06.424Z,52.30
2018-06-16T09:16:34.424Z,54.40
2018-06-16T09:19:02.047Z,54.70
2018-06-16T09:21:29.612Z,55.20
2018-06-16T09:23:57.179Z,57.40
2018-06-16T09:26:24.766Z,57.60
2018-06-16T09:28:52.406Z,56.80
2018-06-16T09:31:19.970Z,56.80
2018-06-16T09:33:47.554Z,56.40
2018-06-16T09:36:15.209Z,56.70
2018-06-16T09:38:42.681Z,56.20
2018-06-16T09:41:10.348Z,54.70
2018-06-16T09:43:38.023Z,54.10
2018-06-16T09:46:05.603Z,55.80
2018-06-16T09:48:33.223Z,55.50
2018-06-16T09:51:00.783Z,54.90
2018-06-16T09:53:28.620Z,54.60
2018-06-16T09:55:56.202Z,53.80
2018-06-16T09:58:23.812Z,55.00
2018-06-16T10:00:51.392Z,55.70
2018-06-16T10:03:18.976Z,55.20
2018-06-16T10:05:46.552Z,55.60
2018-06-16T10:08:14.157Z,56.90
2018-06-16T10:10:41.745Z,57.20
2018-06-16T10:13:09.277Z,57.90
2018-06-16T10:15:36.836Z,58.60
2018-06-16T10:18:04.475Z,59.00
2018-06-16T10:20:32.030Z,58.40
2018-06-16T10:22:59.565Z,58.40
2018-06-16T10:25:27.141Z,59.00
2018-06-16T10:27:54.689Z,59.10
2018-06-16T10:30:22.347Z,59.00
2018-06-16T10:32:49.954Z,59.70
2018-06-16T10:35:17.513Z,59.40
2018-06-16T10:37:45.183Z,59.80
2018-06-16T10:40:12.849Z,59.50
2018-06-16T10:42:40.420Z,58.20
2018-06-16T10:45:07.995Z,59.20
2018-06-16T10:47:35.701Z,59.00
2018-06-16T10:50:03.427Z,58.60
2018-06-16T10:52:31.088Z,57.50
2018-06-16T10:54:58.851Z,57.60
2018-06-16T10:57:27.076Z,57.00
2018-06-16T10:59:55.326Z,56.00
2018-06-16T11:02:22.987Z,56.60
2018-06-16T11:04:51.073Z,57.00
2018-06-16T11:07:18.729Z,57.90
2018-06-16T11:09:46.505Z,57.30
2018-06-16T11:12:14.484Z,56.40
2018-06-16T11:14:42.334Z,56.10
2018-06-16T11:17:10.032Z,57.40
2018-06-16T11:19:37.750Z,58.20
2018-06-16T11:22:05.409Z,58.60
2018-06-16T11:24:33.166Z,57.70
2018-06-16T11:27:00.796Z,57.60
2018-06-16T11:29:34.574Z,57.40
2018-06-16T11:32:08.498Z,55.40
2018-06-16T11:34:36.582Z,56.40
2018-06-16T11:37:04.243Z,56.30
2018-06-16T11:39:31.858Z,56.40
2018-06-16T11:41:59.480Z,56.40
2018-06-16T11:44:27.198Z,56.70
2018-06-16T11:46:54.805Z,57.10
2018-06-16T11:49:22.829Z,57.30
2018-06-16T11:51:53.023Z,56.00
2018-06-16T11:54:20.656Z,56.00
2018-06-16T11:56:48.406Z,55.50
2018-06-16T11:59:16.066Z,56.20
2018-06-16T12:01:43.694Z,54.80
2018-06-16T12:04:11.392Z,54.20
2018-06-16T12:06:39.082Z,53.50
2018-06-16T12:09:09.342Z,53.30
2018-06-16T12:11:36.992Z,51.20
2018-06-16T12:14:05.103Z,50.50
2018-06-16T12:16:32.924Z,51.40
2018-06-16T12:19:00.835Z,52.30
2018-06-16T12:21:28.449Z,52.20
2018-06-16T12:23:56.057Z,53.70
2018-06-16T12:26:23.822Z,52.20
2018-06-16T12:28:51.475Z,52.50
2018-06-16T12:31:19.077Z,50.00
2018-06-16T12:36:14.561Z,51.00
2018-06-16T12:38:42.608Z,51.60
2018-06-16T12:41:10.301Z,50.90
2018-06-16T12:43:37.987Z,51.10
2018-06-16T12:46:05.646Z,50.70
2018-06-16T12:48:33.429Z,51.40
2018-06-16T12:51:01.023Z,51.00
2018-06-16T12:53:28.883Z,53.70
2018-06-16T12:55:56.557Z,51.60
2018-06-16T12:58:24.220Z,51.90
2018-06-16T13:00:51.879Z,51.90
2018-06-16T13:03:19.564Z,51.40
2018-06-16T13:05:47.263Z,51.20
2018-06-16T13:08:14.937Z,51.20
2018-06-16T13:10:42.967Z,52.10
2018-06-16T13:13:10.626Z,52.00
2018-06-16T13:15:38.311Z,51.90
2018-06-16T13:18:06.042Z,51.70
2018-06-16T13:20:33.736Z,50.80
2018-06-16T13:23:01.506Z,50.40
2018-06-16T13:25:29.571Z,51.90
2018-06-16T13:27:57.889Z,52.20
2018-06-16T13:30:25.566Z,51.60
2018-06-16T13:32:53.175Z,49.40
2018-06-16T13:35:20.790Z,49.90
2018-06-16T13:37:48.726Z,51.50
2018-06-16T13:40:16.391Z,50.70
2018-06-16T13:42:44.010Z,50.00
2018-06-16T13:45:11.653Z,50.10
2018-06-16T13:47:39.367Z,49.90
2018-06-16T13:50:07.144Z,49.20
2018-06-16T13:52:34.814Z,48.80
2018-06-16T13:55:02.622Z,48.80
2018-06-16T13:57:30.338Z,50.00
2018-06-16T13:59:58.010Z,49.10
2018-06-16T14:02:25.642Z,49.20
2018-06-16T14:04:53.358Z,51.20
2018-06-16T14:07:21.011Z,50.70
2018-06-16T14:09:48.664Z,51.70
2018-06-16T14:12:16.300Z,49.70
2018-06-16T14:14:43.968Z,49.60
2018-06-16T14:17:11.699Z,49.70
2018-06-16T14:19:39.612Z,50.00
2018-06-16T14:22:07.426Z,50.80
2018-06-16T14:24:35.144Z,49.50
2018-06-16T14:27:02.801Z,48.10
2018-06-16T14:29:30.440Z,49.40
2018-06-16T14:31:58.262Z,50.50
2018-06-16T14:34:25.982Z,50.30
2018-06-16T14:36:53.729Z,50.00
2018-06-16T14:39:21.775Z,49.50
2018-06-16T14:41:49.405Z,49.30
2018-06-16T14:44:17.106Z,49.10
2018-06-16T14:46:44.796Z,49.00
2018-06-16T14:49:12.727Z,49.60
2018-06-16T14:51:40.439Z,49.80
2018-06-16T14:54:08.201Z,50.40
2018-06-16T14:56:36.113Z,51.10
2018-06-16T14:59:03.857Z,50.10
2018-06-16T15:01:31.549Z,50.60
2018-06-16T15:03:59.289Z,51.10
2018-06-16T15:06:27.280Z,50.20
2018-06-16T15:08:55.321Z,50.20
2018-06-16T15:11:22.927Z,50.80
2018-06-16T15:13:50.605Z,49.80
2018-06-16T15:16:18.424Z,51.10
2018-06-16T15:18:46.061Z,51.50
2018-06-16T15:21:13.681Z,51.20
2018-06-16T15:23:41.348Z,52.10
2018-06-16T15:26:09.379Z,52.00
2018-06-16T15:28:37.050Z,53.10
2018-06-16T15:31:04.698Z,53.50
2018-06-16T15:33:32.322Z,52.90
2018-06-16T15:38:27.585Z,52.30
2018-06-16T15:40:55.323Z,52.60
2018-06-16T15:43:22.999Z,53.00
2018-06-16T15:45:51.220Z,53.50
2018-06-16T15:48:18.879Z,53.80
2018-06-16T15:50:46.481Z,51.20
2018-06-16T15:53:14.284Z,52.70
2018-06-16T15:55:42.012Z,54.30
2018-06-16T15:58:09.654Z,54.00
2018-06-16T16:00:38.185Z,54.70
2018-06-16T16:03:06.570Z,54.30
2018-06-16T16:05:35.446Z,55.10
2018-06-16T16:08:03.380Z,54.10
2018-06-16T16:10:31.010Z,55.00
2018-06-16T16:12:58.862Z,54.10
2018-06-16T16:15:27.166Z,53.20
2018-06-16T16:17:54.828Z,54.20
2018-06-16T16:20:22.478Z,54.90
2018-06-16T16:22:50.135Z,54.90
2018-06-16T16:25:17.775Z,54.50
2018-06-16T16:27:45.654Z,55.70
2018-06-16T16:30:13.326Z,55.40
2018-06-16T16:32:40.996Z,55.70
2018-06-16T16:35:08.716Z,55.60
2018-06-16T16:37:36.371Z,55.80
2018-06-16T16:40:04.401Z,55.00
2018-06-16T16:44:59.690Z,55.40
2018-06-16T16:47:27.655Z,55.80
2018-06-16T16:49:55.719Z,55.50
2018-06-16T16:52:23.397Z,55.30
2018-06-16T16:54:51.235Z,55.20
2018-06-16T16:57:19.097Z,55.50
2018-06-16T16:59:46.773Z,55.20
2018-06-16T17:02:14.425Z,55.70
2018-06-16T17:04:42.087Z,55.40
2018-06-16T17:07:09.777Z,56.30
2018-06-16T17:09:37.512Z,55.10
2018-06-16T17:12:05.191Z,55.80
2018-06-16T17:14:32.865Z,57.30
2018-06-16T17:17:00.527Z,58.20
2018-06-16T17:19:28.208Z,58.80
2018-06-16T17:21:55.875Z,59.10
2018-06-16T17:24:23.601Z,59.40
2018-06-16T17:26:51.420Z,60.30
2018-06-16T17:29:19.121Z,60.10
2018-06-16T17:31:46.761Z,60.40
2018-06-16T17:34:14.489Z,60.50
2018-06-16T17:36:42.201Z,61.10
2018-06-16T17:39:10.504Z,61.00
2018-06-16T17:41:38.464Z,61.00
2018-06-16T17:44:06.296Z,60.60
2018-06-16T17:46:34.018Z,60.60
2018-06-16T17:49:01.678Z,61.60
2018-06-16T17:51:29.468Z,61.60
2018-06-16T17:53:57.097Z,61.90
2018-06-16T17:56:25.058Z,62.40
2018-06-16T17:58:52.792Z,62.50
2018-06-16T18:01:20.770Z,63.10
2018-06-16T18:03:48.430Z,63.40
2018-06-16T18:06:16.150Z,63.70
2018-06-16T18:08:43.862Z,63.70
2018-06-16T18:11:11.532Z,64.20
2018-06-16T18:13:39.270Z,65.00
2018-06-16T18:16:06.942Z,65.30
2018-06-16T18:18:34.602Z,65.40
2018-06-16T18:21:02.383Z,65.90
2018-06-16T18:23:30.264Z,66.10
2018-06-16T18:25:57.944Z,66.60
2018-06-16T18:28:25.606Z,66.80
2018-06-16T18:30:54.584Z,66.90
2018-06-16T18:33:22.790Z,67.30
2018-06-16T18:35:50.920Z,67.30
2018-06-16T18:38:19.398Z,67.20
2018-06-16T18:40:47.193Z,67.40
2018-06-16T18:43:14.938Z,67.80
2018-06-16T18:45:42.588Z,67.60
2018-06-16T18:48:10.247Z,67.60
2018-06-16T18:50:37.890Z,67.70
2018-06-16T18:53:05.690Z,68.10
2018-06-16T18:55:33.651Z,68.70
2018-06-16T18:58:01.763Z,69.30
2018-06-16T19:00:29.599Z,70.00
2018-06-16T19:02:57.572Z,70.70
2018-06-16T19:05:26.226Z,71.20
2018-06-16T19:07:53.901Z,70.50
2018-06-16T19:10:21.669Z,70.70
2018-06-16T19:12:49.399Z,71.00
2018-06-16T19:15:17.396Z,71.10
2018-06-16T19:17:45.133Z,71.60
2018-06-16T19:20:12.974Z,72.10
2018-06-16T19:22:40.675Z,72.70
2018-06-16T19:25:08.761Z,73.30
2018-06-16T19:27:36.540Z,73.70
2018-06-16T19:30:04.262Z,73.80
2018-06-16T19:32:31.927Z,74.40
2018-06-16T19:34:59.681Z,74.30
2018-06-16T19:37:27.336Z,75.70
2018-06-16T19:39:55.114Z,75.80
2018-06-16T19:42:22.839Z,75.40
2018-06-16T19:44:50.982Z,75.20
2018-06-16T19:47:18.650Z,75.40
2018-06-16T19:49:46.388Z,75.60
2018-06-16T19:52:14.104Z,75.50
2018-06-16T19:54:41.940Z,75.50
2018-06-16T19:57:09.754Z,75.80
2018-06-16T19:59:37.471Z,76.20
2018-06-16T20:02:05.754Z,76.30
2018-06-16T20:04:33.518Z,76.50
2018-06-16T20:07:01.238Z,76.80
2018-06-16T20:09:28.934Z,77.10
2018-06-16T20:11:57.217Z,78.50
2018-06-16T20:14:25.174Z,79.60
2018-06-16T20:16:52.864Z,79.40
2018-06-16T20:19:20.737Z,78.90
2018-06-16T20:21:48.530Z,79.40
2018-06-16T20:26:44.360Z,79.50
2018-06-16T20:29:12.066Z,80.10
2018-06-16T20:31:39.861Z,80.60
2018-06-16T20:34:07.763Z,81.00
2018-06-16T20:36:35.489Z,82.20
2018-06-16T20:39:05.781Z,83.30
2018-06-16T20:41:33.824Z,83.40
2018-06-16T20:44:01.480Z,83.70
2018-06-16T20:46:29.479Z,84.00
2018-06-16T20:48:57.163Z,85.00
2018-06-16T20:51:24.915Z,85.20
2018-06-16T20:53:52.669Z,85.70
2018-06-16T20:56:20.455Z,86.30
2018-06-16T20:58:48.374Z,86.40
2018-06-16T21:01:16.398Z,86.90
2018-06-16T21:03:44.486Z,87.40
2018-06-16T21:06:12.144Z,88.10
2018-06-16T21:08:39.921Z,89.70
2018-06-16T21:11:07.562Z,90.30
2018-06-16T21:13:35.278Z,90.70
2018-06-16T21:16:02.976Z,91.00
2018-06-16T21:18:30.762Z,91.60
2018-06-16T21:20:58.618Z,91.70
2018-06-16T21:23:26.332Z,92.10
2018-06-16T21:25:54.044Z,93.20
2018-06-16T21:28:21.701Z,93.70
2018-06-16T21:30:49.493Z,94.00
2018-06-16T21:33:17.228Z,94.70
2018-06-16T21:35:44.900Z,95.10
2018-06-16T21:38:12.568Z,94.90
2018-06-16T21:40:40.366Z,94.90
2018-06-16T21:43:08.276Z,94.50
2018-06-16T21:45:35.962Z,94.30
2018-06-16T21:48:03.734Z,94.70
2018-06-16T21:50:31.406Z,95.20
2018-06-16T21:52:59.434Z,95.40
2018-06-16T21:55:27.178Z,95.70
2018-06-16T21:57:54.834Z,96.00
2018-06-16T22:00:22.613Z,96.90
2018-06-16T22:02:50.302Z,97.00
2018-06-16T22:05:18.005Z,97.60
2018-06-16T22:07:45.722Z,97.80
2018-06-16T22:10:13.538Z,98.10
2018-06-16T22:12:41.314Z,98.60
2018-06-16T22:15:09.063Z,99.40
2018-06-16T22:17:36.726Z,99.90
2018-06-16T22:20:04.550Z,99.90
2018-06-16T22:22:32.179Z,99.90
2018-06-16T22:24:59.902Z,99.90
2018-06-16T22:27:27.607Z,99.90
2018-06-16T22:29:55.250Z,99.90
2018-06-16T22:32:23.267Z,99.90
2018-06-16T22:34:51.740Z,99.90
2018-06-16T22:37:19.723Z,99.90
2018-06-16T22:39:47.489Z,99.90
2018-06-16T22:42:15.154Z,99.90
2018-06-16T22:44:43.323Z,99.90
2018-06-16T22:47:11.076Z,99.90
2018-06-16T22:49:38.798Z,99.90
2018-06-16T22:52:06.569Z,99.90
2018-06-16T22:54:34.283Z,99.90
2018-06-16T22:57:01.970Z,99.90
2018-06-16T22:59:29.609Z,99.90
2018-06-16T23:01:57.407Z,99.90
2018-06-16T23:04:25.361Z,99.90
2018-06-16T23:06:53.060Z,99.90
2018-06-16T23:09:20.789Z,99.90
2018-06-16T23:11:48.442Z,99.90
2018-06-16T23:14:16.101Z,99.90
2018-06-16T23:16:43.912Z,99.90
2018-06-16T23:19:11.554Z,99.90
2018-06-16T23:21:39.278Z,99.90
2018-06-16T23:24:07.368Z,99.90
2018-06-16T23:26:34.974Z,99.90
2018-06-16T23:29:02.723Z,99.90
2018-06-16T23:31:30.712Z,99.90
2018-06-16T23:33:58.553Z,99.90
2018-06-16T23:36:26.537Z,99.90
2018-06-16T23:38:54.210Z,99.90
2018-06-16T23:41:21.906Z,99.90
2018-06-16T23:43:49.760Z,99.90
2018-06-16T23:46:17.454Z,99.90
2018-06-16T23:48:45.262Z,99.90
2018-06-16T23:51:12.958Z,99.90
2018-06-16T23:53:40.634Z,99.90
2018-06-16T23:56:08.342Z,99.90
2018-06-16T23:58:36.011Z,99.90
